Time;durP1;ratioP1;P1;durP2;ratioP2;P2;SDS_P1;SDS_P2;PMS_P1;PMS_P2;Temp;Humidity;BMP_temperature;BMP_pressure;BME280_temperature;BME280_humidity;BME280_pressure;Samples;Min_cycle;Max_cycle;Signal;HPM_P1;HPM_P2
2022/05/22 00:01:56;;;;;;;7.60;2.93;;;17.20;67.40;;;;;;5010731;28;20484;-70
2022/05/22 00:04:25;;;;;;;6.00;2.30;;;17.20;67.40;;;;;;5013758;28;20457;-70
2022/05/22 00:06:53;;;;;;;5.00;2.47;;;17.10;67.40;;;;;;5015436;28;21037;-69
2022/05/22 00:09:21;;;;;;;4.90;2.00;;;17.10;67.40;;;;;;5016189;28;20460;-70
2022/05/22 00:11:49;;;;;;;4.10;2.10;;;17.10;67.40;;;;;;5018461;28;20470;-69
2022/05/22 00:14:18;;;;;;;5.20;2.70;;;17.00;67.40;;;;;;5016797;28;20457;-70
2022/05/22 00:16:47;;;;;;;5.40;2.60;;;16.90;67.40;;;;;;5015734;28;20505;-70
2022/05/22 00:19:18;;;;;;;5.67;2.50;;;16.90;67.40;;;;;;5013058;28;20465;-70
2022/05/22 00:21:47;;;;;;;4.87;1.93;;;16.90;67.50;;;;;;5014840;28;21020;-69
2022/05/22 00:24:25;;;;;;;5.20;1.80;;;16.80;67.60;;;;;;5019854;28;21075;-69
2022/05/22 00:26:53;;;;;;;5.77;2.77;;;16.80;67.70;;;;;;5017569;28;20514;-70
2022/05/22 00:29:23;;;;;;;8.93;2.80;;;16.80;67.70;;;;;;5021262;28;20471;-70
2022/05/22 00:31:52;;;;;;;4.70;2.40;;;16.80;67.80;;;;;;5022874;28;20492;-70
2022/05/22 00:34:21;;;;;;;6.40;2.90;;;16.80;67.80;;;;;;5023362;28;20548;-70
2022/05/22 00:36:49;;;;;;;4.40;2.53;;;16.80;67.70;;;;;;5019991;28;20510;-69
2022/05/22 00:39:17;;;;;;;7.50;2.27;;;16.70;67.70;;;;;;5019322;28;20475;-70
2022/05/22 00:41:50;;;;;;;3.70;1.70;;;16.60;67.80;;;;;;5018740;28;20919;-69
2022/05/22 00:44:18;;;;;;;5.20;2.03;;;16.60;67.90;;;;;;5020288;28;20465;-70
2022/05/22 00:46:46;;;;;;;6.43;2.30;;;16.60;67.90;;;;;;5015382;28;21044;-70
2022/05/22 00:49:21;;;;;;;4.10;1.80;;;16.60;67.90;;;;;;5022608;28;20463;-69
2022/05/22 00:51:54;;;;;;;4.10;1.80;;;16.60;67.90;;;;;;5018006;28;20455;-70
2022/05/22 00:54:26;;;;;;;4.23;2.00;;;16.60;67.90;;;;;;5019488;28;20463;-70
2022/05/22 00:57:00;;;;;;;4.60;1.87;;;16.50;67.80;;;;;;5022958;28;20472;-70
2022/05/22 00:59:33;;;;;;;4.90;1.97;;;16.50;67.80;;;;;;5019710;28;20519;-70
2022/05/22 01:02:02;;;;;;;6.00;2.27;;;16.40;67.70;;;;;;5022345;28;20980;-70
2022/05/22 01:04:36;;;;;;;4.90;1.90;;;16.40;67.80;;;;;;5017814;28;20456;-70
2022/05/22 01:07:07;;;;;;;4.50;2.13;;;16.40;67.90;;;;;;5013712;28;20845;-69
2022/05/22 01:09:36;;;;;;;5.60;2.57;;;16.30;67.90;;;;;;5020251;28;20894;-69
2022/05/22 01:12:14;;;;;;;7.03;2.37;;;16.30;67.80;;;;;;5035149;28;20502;-69
2022/05/22 01:14:47;;;;;;;5.07;2.23;;;16.30;67.80;;;;;;5020704;28;20521;-69
2022/05/22 01:17:16;;;;;;;3.83;1.80;;;16.20;67.80;;;;;;5020113;28;20483;-69
2022/05/22 01:19:56;;;;;;;4.70;2.20;;;16.20;67.70;;;;;;5019706;28;20959;-70
2022/05/22 01:22:27;;;;;;;5.30;2.30;;;16.10;67.70;;;;;;5016829;28;20480;-70
2022/05/22 01:24:56;;;;;;;4.60;2.03;;;16.10;67.70;;;;;;5022512;28;20913;-69
2022/05/22 01:27:26;;;;;;;4.87;1.80;;;16.10;67.80;;;;;;5017219;28;20480;-70
2022/05/22 01:30:09;;;;;;;5.40;2.77;;;16.10;67.80;;;;;;5032139;28;20476;-71
2022/05/22 01:32:40;;;;;;;5.97;2.40;;;16.10;67.80;;;;;;5019038;28;20472;-70
2022/05/22 01:35:11;;;;;;;4.23;1.70;;;16.00;67.80;;;;;;5019642;28;20457;-69
2022/05/22 01:37:40;;;;;;;5.40;2.17;;;16.10;67.80;;;;;;5020256;28;20483;-70
2022/05/22 01:40:12;;;;;;;4.80;1.63;;;16.00;67.70;;;;;;5032120;28;20460;-70
2022/05/22 01:42:41;;;;;;;4.53;2.20;;;16.00;67.60;;;;;;5020518;28;20614;-70
2022/05/22 01:45:13;;;;;;;4.13;1.60;;;16.00;67.60;;;;;;5018667;28;20480;-70
2022/05/22 01:47:42;;;;;;;9.43;2.17;;;15.90;67.60;;;;;;4994272;28;20488;-70
2022/05/22 01:50:11;;;;;;;6.07;2.30;;;15.90;67.60;;;;;;4994392;28;20832;-70
2022/05/22 01:52:42;;;;;;;6.63;2.10;;;15.80;67.50;;;;;;4996765;28;21054;-70
2022/05/22 01:55:12;;;;;;;4.57;1.90;;;15.80;67.60;;;;;;4996170;28;20474;-69
2022/05/22 01:57:44;;;;;;;5.10;2.47;;;15.80;67.70;;;;;;5002225;28;20501;-69
2022/05/22 02:00:19;;;;;;;4.87;2.17;;;15.80;67.70;;;;;;4997988;28;20466;-69
2022/05/22 02:02:54;;;;;;;8.00;2.07;;;15.80;67.70;;;;;;5033114;28;20463;-69
2022/05/22 02:05:30;;;;;;;6.63;2.30;;;15.70;67.70;;;;;;5031582;28;21029;-70
2022/05/22 02:10:47;;;;;;;6.27;2.53;;;15.60;67.60;;;;;;5012984;28;20587;-69
2022/05/22 02:13:20;;;;;;;7.43;1.83;;;15.50;67.70;;;;;;5016182;28;20554;-69
2022/05/22 02:15:51;;;;;;;6.03;2.27;;;15.50;67.80;;;;;;5033449;28;20890;-69
2022/05/22 02:18:19;;;;;;;5.30;1.87;;;15.50;67.90;;;;;;5019108;28;21189;-69
2022/05/22 02:20:48;;;;;;;4.63;2.00;;;15.50;67.90;;;;;;5016956;28;20584;-70
2022/05/22 02:23:18;;;;;;;4.93;2.43;;;15.50;67.80;;;;;;5013535;28;20473;-69
2022/05/22 02:25:49;;;;;;;4.27;1.97;;;15.40;67.70;;;;;;5017219;28;20488;-70
2022/05/22 02:28:18;;;;;;;4.70;2.33;;;15.40;67.80;;;;;;5018129;28;20540;-69
2022/05/22 02:30:50;;;;;;;5.93;2.07;;;15.40;68.00;;;;;;5016699;28;20490;-70
2022/05/22 02:33:18;;;;;;;5.67;2.07;;;15.40;68.00;;;;;;5020443;28;20767;-72
2022/05/22 02:36:08;;;;;;;5.13;1.90;;;15.40;68.00;;;;;;5018129;28;20557;-70
2022/05/22 02:38:39;;;;;;;5.90;2.10;;;15.40;68.00;;;;;;5029985;28;20464;-71
2022/05/22 02:41:11;;;;;;;4.57;2.00;;;15.40;68.00;;;;;;5015479;28;20974;-71
2022/05/22 02:43:41;;;;;;;5.77;1.73;;;15.30;67.90;;;;;;5013080;28;21271;-71
2022/05/22 02:46:17;;;;;;;7.50;2.27;;;15.30;68.10;;;;;;5017254;28;20775;-71
2022/05/22 02:48:46;;;;;;;5.77;2.57;;;15.30;68.20;;;;;;5030908;28;20472;-72
2022/05/22 02:51:16;;;;;;;5.40;2.10;;;15.30;68.20;;;;;;5020784;28;20482;-69
2022/05/22 02:53:46;;;;;;;4.70;2.03;;;15.30;68.20;;;;;;5016891;28;20869;-69
2022/05/22 02:56:24;;;;;;;4.40;1.93;;;15.30;68.20;;;;;;5017633;28;20495;-72
2022/05/22 02:59:24;;;;;;;4.93;1.73;;;15.20;68.20;;;;;;5009332;28;20561;-71
2022/05/22 03:02:11;;;;;;;4.47;2.20;;;15.20;68.10;;;;;;5019357;28;20598;-71
2022/05/22 03:04:41;;;;;;;5.50;2.10;;;15.20;68.20;;;;;;5021812;28;20862;-72
2022/05/22 03:07:11;;;;;;;5.57;2.53;;;15.20;68.20;;;;;;5030288;28;20485;-71
2022/05/22 03:09:43;;;;;;;3.97;2.00;;;15.10;68.20;;;;;;5033697;28;20464;-71
2022/05/22 03:12:14;;;;;;;4.90;2.20;;;15.10;68.30;;;;;;5013189;28;20460;-71
2022/05/22 03:14:44;;;;;;;5.20;2.27;;;15.10;68.30;;;;;;5012107;28;20460;-71
2022/05/22 03:17:12;;;;;;;4.57;2.20;;;15.10;68.30;;;;;;5022129;28;21071;-70
2022/05/22 03:19:51;;;;;;;7.13;2.17;;;15.00;68.20;;;;;;5017655;28;20973;-71
2022/05/22 03:22:20;;;;;;;4.13;1.90;;;14.90;68.20;;;;;;5020453;28;20462;-70
2022/05/22 03:24:49;;;;;;;5.03;2.37;;;14.90;68.40;;;;;;5021187;28;20815;-71
2022/05/22 03:27:19;;;;;;;5.40;2.20;;;14.80;68.30;;;;;;5016563;28;20619;-71
2022/05/22 03:29:49;;;;;;;7.00;1.83;;;14.80;68.50;;;;;;5027225;28;20845;-71
2022/05/22 03:32:17;;;;;;;3.90;1.90;;;14.80;68.60;;;;;;5017774;28;20575;-72
2022/05/22 03:34:48;;;;;;;4.83;2.10;;;14.80;68.70;;;;;;5032618;28;20550;-71
2022/05/22 03:37:16;;;;;;;5.77;2.20;;;14.80;68.70;;;;;;5014134;28;20484;-71
2022/05/22 03:39:44;;;;;;;4.40;2.00;;;14.90;68.70;;;;;;5028897;28;20551;-71
2022/05/22 03:42:13;;;;;;;6.63;2.70;;;14.90;68.70;;;;;;5015550;28;20461;-71
2022/05/22 03:44:43;;;;;;;5.20;2.00;;;14.90;68.70;;;;;;5021518;28;20463;-71
2022/05/22 03:47:11;;;;;;;5.07;2.17;;;14.90;68.70;;;;;;5016627;28;20507;-71
2022/05/22 03:49:57;;;;;;;7.83;2.60;;;14.90;68.70;;;;;;5016604;28;20464;-71
2022/05/22 03:52:25;;;;;;;4.67;2.20;;;14.90;68.70;;;;;;5027967;28;20462;-70
2022/05/22 03:54:54;;;;;;;4.80;2.40;;;14.90;68.70;;;;;;5026136;28;20551;-71
2022/05/22 03:57:23;;;;;;;4.30;1.97;;;14.90;68.70;;;;;;5013396;28;20479;-71
2022/05/22 03:59:57;;;;;;;4.70;1.80;;;14.90;68.70;;;;;;5016307;28;20457;-71
2022/05/22 04:02:25;;;;;;;5.10;2.70;;;14.90;68.70;;;;;;5030676;28;20566;-70
2022/05/22 04:04:54;;;;;;;6.20;2.33;;;14.90;68.70;;;;;;5023960;28;20463;-70
2022/05/22 04:07:25;;;;;;;4.77;2.00;;;14.90;68.70;;;;;;5019605;28;20507;-70
2022/05/22 04:09:58;;;;;;;5.10;2.67;;;15.00;68.80;;;;;;5020893;28;20500;-71
2022/05/22 04:12:37;;;;;;;5.17;2.30;;;15.00;68.80;;;;;;5023144;28;20469;-70
2022/05/22 04:15:08;;;;;;;4.30;2.20;;;15.00;68.80;;;;;;5022919;28;20456;-70
2022/05/22 04:17:37;;;;;;;5.10;2.20;;;15.00;68.80;;;;;;5025830;28;20498;-71
2022/05/22 04:20:16;;;;;;;5.27;2.47;;;15.10;68.80;;;;;;5021485;28;20562;-70
2022/05/22 04:25:29;;;;;;;4.90;2.00;;;15.20;68.80;;;;;;5023309;28;20492;-70
2022/05/22 04:27:59;;;;;;;7.23;2.47;;;15.20;68.80;;;;;;5017646;28;20481;-71
2022/05/22 04:30:27;;;;;;;4.53;1.97;;;15.20;68.80;;;;;;5015371;28;20522;-70
2022/05/22 04:33:03;;;;;;;8.13;2.43;;;15.20;68.90;;;;;;5020071;28;20464;-70
2022/05/22 04:35:31;;;;;;;4.23;2.10;;;15.30;68.90;;;;;;5018888;28;20455;-71
2022/05/22 04:38:03;;;;;;;5.73;2.37;;;15.40;68.90;;;;;;5018179;28;20487;-70
2022/05/22 04:40:33;;;;;;;6.50;2.60;;;15.50;69.00;;;;;;5022035;28;20842;-70
2022/05/22 04:43:04;;;;;;;4.60;2.00;;;15.60;69.00;;;;;;5018505;28;20462;-71
2022/05/22 04:45:33;;;;;;;13.07;2.47;;;15.70;69.00;;;;;;5018281;28;20507;-70
2022/05/22 04:48:04;;;;;;;4.73;2.23;;;15.80;69.00;;;;;;5020083;28;20486;-70
2022/05/22 04:50:35;;;;;;;5.50;2.13;;;15.90;69.00;;;;;;5024213;28;20556;-70
2022/05/22 04:53:12;;;;;;;6.80;2.20;;;16.00;68.90;;;;;;5022006;28;20458;-71
2022/05/22 04:55:52;;;;;;;5.40;2.00;;;16.20;68.90;;;;;;5019695;28;20484;-71
2022/05/22 04:58:22;;;;;;;4.07;1.90;;;16.30;68.80;;;;;;5019486;28;20831;-71
2022/05/22 05:00:50;;;;;;;5.03;2.87;;;16.50;68.80;;;;;;5019526;28;20886;-71
2022/05/22 05:03:19;;;;;;;5.50;2.67;;;16.60;68.80;;;;;;5024767;28;20467;-70
2022/05/22 05:05:57;;;;;;;5.50;2.00;;;16.80;68.70;;;;;;5037170;28;20483;-71
2022/05/22 05:08:29;;;;;;;6.33;2.17;;;16.90;68.70;;;;;;5020861;28;20848;-72
2022/05/22 05:11:03;;;;;;;4.90;2.27;;;17.10;68.70;;;;;;5016247;28;20451;-70
2022/05/22 05:13:38;;;;;;;6.83;2.40;;;17.20;68.70;;;;;;5020011;28;20881;-71
2022/05/22 05:16:07;;;;;;;4.60;2.10;;;17.30;68.80;;;;;;5022162;28;20468;-71
2022/05/22 05:18:42;;;;;;;4.70;2.13;;;17.50;68.90;;;;;;5038302;28;21103;-71
2022/05/22 05:21:11;;;;;;;4.57;2.40;;;17.70;69.60;;;;;;5032590;28;20553;-71
2022/05/22 05:23:40;;;;;;;4.33;2.17;;;18.00;70.50;;;;;;5019589;28;20464;-71
2022/05/22 05:26:20;;;;;;;6.40;2.90;;;18.60;70.40;;;;;;5022405;28;20589;-71
2022/05/22 05:28:50;;;;;;;6.93;2.30;;;19.60;68.70;;;;;;5021570;28;20504;-71
2022/05/22 05:31:50;;;;;;;6.07;2.90;;;20.70;66.70;;;;;;5010104;28;20635;-70
2022/05/22 05:34:20;;;;;;;5.73;2.77;;;22.10;64.50;;;;;;5036042;28;20553;-72
2022/05/22 05:37:11;;;;;;;5.37;2.90;;;23.10;63.00;;;;;;5033475;28;20524;-71
2022/05/22 05:39:46;;;;;;;5.40;2.73;;;24.10;61.30;;;;;;5016330;28;20471;-71
2022/05/22 05:42:24;;;;;;;5.70;2.80;;;24.90;60.30;;;;;;5032665;28;20536;-70
2022/05/22 05:44:54;;;;;;;5.80;3.07;;;25.50;59.40;;;;;;5035477;28;20457;-70
2022/05/22 05:47:28;;;;;;;4.70;2.77;;;26.20;58.60;;;;;;5036641;28;20616;-70
2022/05/22 05:50:02;;;;;;;7.17;3.10;;;26.80;57.80;;;;;;5024612;28;20463;-70
2022/05/22 05:53:03;;;;;;;6.20;2.57;;;27.40;57.20;;;;;;4983458;28;20609;-71
2022/05/22 05:56:04;;;;;;;7.37;2.80;;;28.20;56.30;;;;;;5015465;28;20594;-70
2022/05/22 05:59:07;;;;;;;9.00;3.10;;;28.80;55.20;;;;;;5017946;28;20462;-70
2022/05/22 06:01:46;;;;;;;6.03;2.83;;;29.30;54.40;;;;;;5022211;28;20495;-70
2022/05/22 06:04:16;;;;;;;8.50;3.13;;;29.80;53.60;;;;;;5032609;28;20511;-70
2022/05/22 06:06:45;;;;;;;7.07;2.63;;;30.30;52.70;;;;;;5020077;28;20587;-68
2022/05/22 06:09:14;;;;;;;6.90;2.80;;;30.60;51.60;;;;;;5017091;28;20508;-70
2022/05/22 06:12:01;;;;;;;7.63;3.30;;;30.70;50.70;;;;;;5018214;28;20462;-70
2022/05/22 06:14:33;;;;;;;5.17;2.60;;;30.20;50.60;;;;;;5022367;28;20453;-70
2022/05/22 06:17:03;;;;;;;6.77;3.30;;;29.40;50.40;;;;;;5020249;28;20494;-70
2022/05/22 06:19:55;;;;;;;6.30;2.70;;;28.40;50.70;;;;;;5004663;28;20492;-70
2022/05/22 06:22:36;;;;;;;5.33;2.73;;;27.20;51.10;;;;;;5005571;28;20468;-71
2022/05/22 06:25:09;;;;;;;6.00;2.70;;;25.70;52.00;;;;;;5001904;28;20466;-71
2022/05/22 06:27:49;;;;;;;7.37;2.43;;;24.40;53.00;;;;;;4999831;28;20516;-72
2022/05/22 06:30:46;;;;;;;6.67;2.63;;;23.30;54.20;;;;;;5009925;28;21056;-71
2022/05/22 06:33:35;;;;;;;9.70;3.20;;;22.30;55.40;;;;;;5019855;28;20489;-69
2022/05/22 06:36:25;;;;;;;6.27;2.33;;;21.60;57.00;;;;;;5013452;28;20532;-71
2022/05/22 06:42:15;;;;;;;4.53;2.03;;;20.40;58.50;;;;;;5015410;28;20475;-72
2022/05/22 06:45:03;;;;;;;7.43;2.70;;;20.00;59.30;;;;;;5016348;28;21180;-71
2022/05/22 06:47:50;;;;;;;7.00;3.40;;;19.70;60.40;;;;;;5014997;28;20551;-71
2022/05/22 06:50:39;;;;;;;6.93;4.00;;;19.40;60.80;;;;;;5020567;28;21109;-72
2022/05/22 06:53:13;;;;;;;6.80;3.43;;;19.20;61.40;;;;;;5016837;28;20511;-72
2022/05/22 06:56:01;;;;;;;6.63;2.77;;;19.10;61.90;;;;;;4984400;28;20437;-72
2022/05/22 06:58:51;;;;;;;4.60;2.73;;;19.00;63.10;;;;;;5018131;28;20526;-72
2022/05/22 07:01:51;;;;;;;5.40;2.40;;;18.90;63.20;;;;;;4993670;28;20487;-72
2022/05/22 07:04:38;;;;;;;9.23;3.33;;;18.90;63.40;;;;;;5011951;28;20467;-72
2022/05/22 07:07:25;;;;;;;4.60;2.17;;;18.90;63.50;;;;;;5021495;28;20518;-73
2022/05/22 07:11:38;;;;;;;6.13;2.00;;;18.90;63.70;;;;;;4952851;28;20502;-72
2022/05/22 07:13:38;;;;;;;6.03;2.47;;;18.90;63.60;;;;;;5017056;28;20473;-72
2022/05/22 07:16:29;;;;;;;6.53;2.80;;;18.90;63.90;;;;;;5017751;28;20555;-72
2022/05/22 07:19:07;;;;;;;4.67;1.83;;;18.90;64.00;;;;;;5013245;28;20542;-72
2022/05/22 07:21:52;;;;;;;7.47;2.23;;;19.00;64.10;;;;;;5015563;28;20460;-72
2022/05/22 07:24:37;;;;;;;6.20;2.40;;;19.00;64.20;;;;;;5030899;28;20469;-73
2022/05/22 07:27:15;;;;;;;4.90;2.53;;;19.10;64.40;;;;;;5032837;28;21140;-72
2022/05/22 07:29:57;;;;;;;6.37;2.10;;;19.10;64.80;;;;;;5015424;28;20496;-72
2022/05/22 07:33:01;;;;;;;5.80;2.40;;;19.20;64.90;;;;;;4982071;28;20507;-71
2022/05/22 07:35:35;;;;;;;4.60;2.20;;;19.20;65.00;;;;;;5014011;28;20525;-72
2022/05/22 07:38:23;;;;;;;5.70;2.40;;;19.30;65.30;;;;;;5016959;28;20478;-73
2022/05/22 07:41:07;;;;;;;7.60;2.07;;;19.30;65.40;;;;;;5035676;28;20547;-73
2022/05/22 07:43:58;;;;;;;5.70;2.60;;;19.40;65.60;;;;;;5017697;28;20469;-73
2022/05/22 07:46:44;;;;;;;5.40;2.00;;;19.40;65.60;;;;;;5020666;28;20499;-72
2022/05/22 07:52:18;;;;;;;4.00;1.80;;;19.50;65.70;;;;;;5017495;28;20576;-72
2022/05/22 07:55:14;;;;;;;5.60;2.57;;;19.50;65.50;;;;;;5016746;28;20842;-70
2022/05/22 07:57:58;;;;;;;5.63;1.77;;;19.50;65.40;;;;;;5020718;28;20859;-73
2022/05/22 08:00:53;;;;;;;5.50;1.77;;;19.50;65.30;;;;;;5010320;28;20569;-73
2022/05/22 08:03:40;;;;;;;6.03;2.10;;;19.60;65.30;;;;;;5023683;28;20466;-73
2022/05/22 08:06:10;;;;;;;4.63;1.57;;;19.60;65.20;;;;;;5025030;28;20460;-72
2022/05/22 08:08:39;;;;;;;5.47;1.83;;;19.70;65.20;;;;;;5015375;28;20459;-73
2022/05/22 08:11:17;;;;;;;5.40;1.60;;;19.70;65.00;;;;;;5018452;28;20463;-72
2022/05/22 08:13:52;;;;;;;5.93;1.70;;;19.70;64.90;;;;;;5035741;28;20457;-72
2022/05/22 08:16:30;;;;;;;5.37;1.97;;;19.80;64.40;;;;;;5019930;28;20477;-73
2022/05/22 08:19:09;;;;;;;6.53;1.97;;;19.80;64.30;;;;;;5018551;28;20465;-71
2022/05/22 08:21:49;;;;;;;9.50;2.03;;;19.80;64.30;;;;;;5018565;28;20542;-72
2022/05/22 08:24:17;;;;;;;5.13;1.77;;;19.80;64.30;;;;;;5018800;28;21116;-73
2022/05/22 08:26:45;;;;;;;5.07;1.90;;;19.90;64.20;;;;;;5029822;28;20488;-73
2022/05/22 08:29:21;;;;;;;7.23;1.97;;;19.90;64.10;;;;;;5017144;28;20485;-73
2022/05/22 08:31:49;;;;;;;4.80;1.70;;;19.90;64.10;;;;;;5015725;28;21030;-73
2022/05/22 08:34:17;;;;;;;5.43;1.90;;;19.90;64.10;;;;;;5018798;28;21043;-73
2022/05/22 08:36:45;;;;;;;5.73;1.97;;;19.90;64.20;;;;;;5021315;28;20488;-74
2022/05/22 08:39:13;;;;;;;4.80;1.90;;;19.90;64.10;;;;;;5019555;28;20468;-73
2022/05/22 08:41:46;;;;;;;5.37;2.50;;;19.90;64.00;;;;;;5020605;28;20499;-73
2022/05/22 08:44:17;;;;;;;5.30;1.83;;;19.90;63.90;;;;;;5023471;28;20452;-73
2022/05/22 08:46:57;;;;;;;6.73;1.90;;;19.90;64.00;;;;;;5020709;28;20496;-73
2022/05/22 08:49:31;;;;;;;6.17;1.80;;;20.00;63.80;;;;;;5017892;28;20477;-73
2022/05/22 08:52:09;;;;;;;6.87;2.03;;;20.00;63.80;;;;;;5018120;28;20447;-73
2022/05/22 08:54:40;;;;;;;6.83;1.70;;;20.10;63.60;;;;;;5022147;28;20471;-73
2022/05/22 09:00:07;;;;;;;6.43;1.80;;;20.20;63.20;;;;;;5017832;28;20976;-73
2022/05/22 09:02:41;;;;;;;4.57;1.50;;;20.20;63.30;;;;;;5019137;28;21046;-73
2022/05/22 09:05:11;;;;;;;6.40;1.50;;;20.20;63.00;;;;;;5017876;28;21204;-73
2022/05/22 09:07:51;;;;;;;11.60;2.40;;;20.20;62.90;;;;;;5019224;28;20935;-73
2022/05/22 09:10:23;;;;;;;4.67;1.80;;;20.20;62.90;;;;;;5022647;28;20476;-73
2022/05/22 09:13:09;;;;;;;4.67;1.57;;;20.20;62.90;;;;;;5020225;28;20515;-73
2022/05/22 09:16:06;;;;;;;4.57;1.40;;;20.30;62.80;;;;;;5021561;28;20481;-73
2022/05/22 09:18:38;;;;;;;4.80;1.73;;;20.30;62.60;;;;;;5024575;28;20980;-73
2022/05/22 09:21:17;;;;;;;5.27;1.93;;;20.30;62.70;;;;;;5025154;28;20455;-73
2022/05/22 09:23:57;;;;;;;4.77;1.70;;;20.40;62.50;;;;;;5023157;28;20490;-73
2022/05/22 09:26:41;;;;;;;5.90;1.73;;;20.40;62.40;;;;;;5025772;28;20478;-74
2022/05/22 09:29:25;;;;;;;8.07;2.10;;;20.50;62.30;;;;;;5021091;28;20486;-73
2022/05/22 09:32:00;;;;;;;4.73;1.70;;;20.50;62.20;;;;;;5018598;28;20472;-73
2022/05/22 09:34:36;;;;;;;4.97;2.07;;;20.50;62.30;;;;;;5017811;28;20468;-73
2022/05/22 09:37:16;;;;;;;5.43;1.70;;;20.60;62.40;;;;;;5014741;28;20484;-72
2022/05/22 09:39:59;;;;;;;4.33;1.90;;;20.60;62.50;;;;;;5020948;28;20456;-73
2022/05/22 09:42:40;;;;;;;6.60;1.63;;;20.60;62.50;;;;;;5020957;28;20453;-74
2022/05/22 09:45:27;;;;;;;6.77;1.77;;;20.70;62.50;;;;;;5020490;28;20466;-73
2022/05/22 09:48:17;;;;;;;4.43;1.60;;;20.80;62.40;;;;;;5018048;28;20483;-73
2022/05/22 09:51:15;;;;;;;5.10;2.30;;;20.80;62.20;;;;;;5021064;28;20482;-73
2022/05/22 09:53:54;;;;;;;6.90;1.90;;;20.80;62.20;;;;;;5021964;28;20467;-73
2022/05/22 09:56:52;;;;;;;6.13;2.20;;;20.80;62.10;;;;;;5014607;28;20481;-73
2022/05/22 09:59:32;;;;;;;5.13;1.60;;;20.80;62.20;;;;;;5023767;28;20892;-72
2022/05/22 10:02:07;;;;;;;7.17;2.27;;;20.80;62.20;;;;;;5022541;28;20484;-73
2022/05/22 10:04:44;;;;;;;4.50;1.90;;;20.80;62.10;;;;;;5019942;28;20839;-74
2022/05/22 10:07:20;;;;;;;6.47;2.30;;;20.90;62.00;;;;;;5015420;28;21013;-74
2022/05/22 10:09:58;;;;;;;3.90;1.43;;;20.90;61.80;;;;;;5019282;28;20467;-73
2022/05/22 10:12:38;;;;;;;4.47;1.87;;;20.90;61.50;;;;;;5016925;28;20992;-73
2022/05/22 10:15:22;;;;;;;5.80;1.60;;;20.90;61.50;;;;;;5035528;28;20452;-73
2022/05/22 10:18:03;;;;;;;8.67;1.43;;;21.00;61.50;;;;;;5023057;28;20492;-73
2022/05/22 10:20:44;;;;;;;4.17;1.67;;;21.10;61.30;;;;;;5018995;28;20477;-73
2022/05/22 10:23:26;;;;;;;4.63;1.80;;;21.10;60.80;;;;;;5018239;28;20452;-72
2022/05/22 10:26:05;;;;;;;4.90;1.83;;;21.20;60.80;;;;;;5035028;28;20464;-74
2022/05/22 10:28:37;;;;;;;5.17;2.00;;;21.30;60.60;;;;;;5019467;28;20491;-73
2022/05/22 10:31:08;;;;;;;5.00;2.10;;;21.30;60.40;;;;;;5019335;28;20488;-74
2022/05/22 10:33:50;;;;;;;5.87;1.60;;;21.40;60.50;;;;;;5019410;28;20452;-73
2022/05/22 10:36:23;;;;;;;4.10;1.43;;;21.40;60.30;;;;;;5022115;28;20457;-73
2022/05/22 10:38:59;;;;;;;5.00;1.53;;;21.50;60.20;;;;;;5011166;28;20462;-71
2022/05/22 10:44:20;;;;;;;5.70;2.13;;;21.50;59.90;;;;;;5016796;28;20469;-73
2022/05/22 10:46:50;;;;;;;3.97;1.60;;;21.50;59.80;;;;;;5014971;28;20495;-73
2022/05/22 10:49:20;;;;;;;5.87;1.83;;;21.50;59.80;;;;;;5018818;28;20463;-73
2022/05/22 10:51:59;;;;;;;7.17;1.90;;;21.40;59.70;;;;;;5016718;28;20481;-74
2022/05/22 10:54:33;;;;;;;4.57;1.53;;;21.40;59.70;;;;;;5017923;28;21296;-74
2022/05/22 10:57:09;;;;;;;5.77;1.53;;;21.40;59.60;;;;;;5017751;28;20480;-73
2022/05/22 10:59:38;;;;;;;4.80;1.73;;;21.40;59.40;;;;;;5021991;28;20444;-73
2022/05/22 11:02:15;;;;;;;4.37;1.57;;;21.40;59.40;;;;;;5018996;28;20477;-73
2022/05/22 11:04:46;;;;;;;6.40;1.73;;;21.40;59.40;;;;;;5018517;28;20523;-73
2022/05/22 11:07:28;;;;;;;4.20;1.60;;;21.40;59.00;;;;;;5016363;28;20484;-73
2022/05/22 11:10:07;;;;;;;4.70;1.40;;;21.50;59.00;;;;;;5018755;28;20448;-73
2022/05/22 11:12:35;;;;;;;7.80;1.67;;;21.50;59.00;;;;;;5017279;28;20482;-74
2022/05/22 11:15:12;;;;;;;3.60;1.30;;;21.50;58.80;;;;;;5016617;28;20453;-73
2022/05/22 11:17:40;;;;;;;8.50;1.60;;;21.50;58.70;;;;;;5018192;28;20480;-73
2022/05/22 11:20:14;;;;;;;4.27;1.87;;;21.50;58.50;;;;;;5019255;28;21080;-73
2022/05/22 11:22:59;;;;;;;7.87;1.60;;;21.50;58.40;;;;;;5017559;28;20464;-73
2022/05/22 11:25:39;;;;;;;7.90;1.80;;;21.50;58.30;;;;;;5015755;28;20481;-73
2022/05/22 11:28:29;;;;;;;4.43;1.40;;;21.50;58.30;;;;;;5016515;28;20477;-74
2022/05/22 11:31:04;;;;;;;5.23;1.83;;;21.50;58.00;;;;;;5013076;28;20498;-73
2022/05/22 11:33:46;;;;;;;5.93;1.50;;;21.50;58.30;;;;;;5013989;28;20548;-73
2022/05/22 11:36:29;;;;;;;3.73;1.23;;;21.60;58.20;;;;;;5020654;28;20451;-73
2022/05/22 11:39:13;;;;;;;4.80;1.90;;;21.60;58.00;;;;;;5013935;28;20477;-73
2022/05/22 11:41:49;;;;;;;4.60;1.33;;;21.70;57.80;;;;;;5014239;28;20464;-73
2022/05/22 11:44:47;;;;;;;4.40;1.50;;;21.70;57.70;;;;;;5013299;28;20459;-74
2022/05/22 11:47:27;;;;;;;3.97;1.67;;;21.80;57.70;;;;;;5016811;28;20494;-73
2022/05/22 11:50:07;;;;;;;5.13;1.53;;;21.90;57.60;;;;;;5021084;28;20464;-73
2022/05/22 11:52:54;;;;;;;3.90;1.40;;;21.90;57.50;;;;;;5017579;28;21516;-73
2022/05/22 11:55:29;;;;;;;4.20;1.50;;;21.90;57.50;;;;;;5012270;28;20452;-73
2022/05/22 11:58:11;;;;;;;3.80;1.33;;;21.90;57.00;;;;;;5011372;28;20476;-73
2022/05/22 12:00:47;;;;;;;8.03;1.60;;;21.90;56.90;;;;;;5013058;28;20497;-73
2022/05/22 12:03:46;;;;;;;7.33;1.50;;;21.90;56.70;;;;;;5015722;28;20515;-72
2022/05/22 12:06:25;;;;;;;6.90;1.70;;;21.90;56.70;;;;;;5019480;28;20488;-72
2022/05/22 12:09:09;;;;;;;4.50;1.70;;;21.90;56.00;;;;;;5019153;28;20569;-70
2022/05/22 12:11:48;;;;;;;4.57;1.53;;;22.00;56.50;;;;;;5014678;28;20489;-71
2022/05/22 12:14:26;;;;;;;5.20;1.43;;;22.00;56.70;;;;;;5020439;28;20458;-73
2022/05/22 12:16:59;;;;;;;4.07;1.70;;;22.10;56.60;;;;;;5020578;28;20488;-73
2022/05/22 12:19:37;;;;;;;5.57;1.50;;;22.10;56.40;;;;;;5021895;28;20973;-70
2022/05/22 12:22:15;;;;;;;4.30;1.60;;;22.10;56.00;;;;;;5023803;28;20506;-71
2022/05/22 12:24:50;;;;;;;4.63;1.30;;;22.20;56.30;;;;;;5019897;28;20460;-71
2022/05/22 12:27:24;;;;;;;4.20;1.50;;;22.20;56.30;;;;;;5018492;28;20472;-71
2022/05/22 12:30:04;;;;;;;5.03;1.57;;;22.30;56.60;;;;;;5019060;28;20467;-72
2022/05/22 12:32:38;;;;;;;3.77;1.33;;;22.40;56.80;;;;;;5020517;28;20487;-71
2022/05/22 12:35:08;;;;;;;5.10;1.90;;;22.50;57.00;;;;;;5022408;28;20461;-72
2022/05/22 12:37:42;;;;;;;4.33;1.47;;;22.50;56.70;;;;;;5017808;28;20538;-72
2022/05/22 12:40:37;;;;;;;5.97;1.80;;;22.60;56.90;;;;;;5016738;28;20492;-72
2022/05/22 12:43:10;;;;;;;4.77;1.40;;;22.60;57.10;;;;;;5016970;28;20579;-71
2022/05/22 12:45:53;;;;;;;4.67;1.60;;;22.70;57.20;;;;;;5021273;28;20563;-71
2022/05/22 12:48:36;;;;;;;4.17;1.57;;;22.70;57.00;;;;;;5016444;28;20488;-72
2022/05/22 12:51:14;;;;;;;3.70;1.50;;;22.70;56.80;;;;;;5020060;28;20459;-72
2022/05/22 12:53:46;;;;;;;4.20;1.30;;;22.70;57.20;;;;;;5024422;28;20468;-72
2022/05/22 12:56:24;;;;;;;4.57;1.50;;;22.80;57.00;;;;;;5017722;28;20528;-73
2022/05/22 12:58:56;;;;;;;8.70;1.77;;;22.80;56.80;;;;;;5020885;28;20887;-73
2022/05/22 13:01:38;;;;;;;4.90;1.43;;;22.80;56.40;;;;;;5020435;28;20470;-72
2022/05/22 13:04:19;;;;;;;4.03;1.43;;;22.70;56.50;;;;;;5017608;28;20469;-71
2022/05/22 13:06:51;;;;;;;3.50;1.23;;;22.70;56.30;;;;;;5015630;28;20487;-71
2022/05/22 13:09:33;;;;;;;4.50;1.40;;;22.70;56.20;;;;;;5021254;28;20469;-72
2022/05/22 13:12:06;;;;;;;4.63;1.50;;;22.70;56.20;;;;;;5022534;28;20472;-71
2022/05/22 13:14:40;;;;;;;4.63;1.50;;;22.70;56.20;;;;;;5020692;28;20460;-72
2022/05/22 13:17:12;;;;;;;5.40;1.80;;;22.80;56.10;;;;;;5019212;28;20490;-73
2022/05/22 13:19:51;;;;;;;4.57;1.50;;;22.80;55.70;;;;;;5017110;28;20472;-73
2022/05/22 13:22:29;;;;;;;9.33;1.60;;;22.80;55.70;;;;;;5014753;28;20451;-73
2022/05/22 13:24:58;;;;;;;3.73;1.30;;;22.80;55.20;;;;;;5019862;28;20464;-73
2022/05/22 13:27:39;;;;;;;4.07;1.40;;;22.90;55.60;;;;;;5022206;28;20488;-73
2022/05/22 13:30:16;;;;;;;4.50;1.50;;;22.90;55.60;;;;;;5018088;28;20495;-73
2022/05/22 13:32:52;;;;;;;5.23;1.80;;;22.90;55.60;;;;;;5022458;28;20474;-73
2022/05/22 13:35:22;;;;;;;7.87;1.63;;;23.00;55.50;;;;;;5017676;28;20869;-71
2022/05/22 13:37:53;;;;;;;4.13;1.47;;;23.00;55.50;;;;;;5021399;28;20519;-72
2022/05/22 13:40:38;;;;;;;5.33;1.87;;;23.00;55.30;;;;;;5018179;28;20473;-71
2022/05/22 13:43:33;;;;;;;4.50;1.40;;;23.10;55.30;;;;;;5020703;28;20460;-70
2022/05/22 13:46:31;;;;;;;3.93;1.70;;;23.20;55.30;;;;;;5018361;28;20479;-69
2022/05/22 13:49:40;;;;;;;5.07;1.40;;;23.20;55.20;;;;;;5017414;28;22305;-71
2022/05/22 13:52:37;;;;;;;5.00;1.60;;;23.30;54.80;;;;;;5028764;28;20481;-71
2022/05/22 13:55:13;;;;;;;4.30;1.63;;;23.30;54.60;;;;;;5017291;28;20451;-70